sensor_id;sensor_type;location;lat;lon;timestamp;pressure;altitude;pressure_sealevel;temperature;humidity
59391;BME280;53405;57.012;40.984;2023-09-08T00:01:18;100032.03;;;10.06;79.96
59391;BME280;53405;57.012;40.984;2023-09-08T00:03:45;100071.97;;;10.10;81.00
59391;BME280;53405;57.012;40.984;2023-09-08T00:06:13;100071.13;;;10.18;80.87
59391;BME280;53405;57.012;40.984;2023-09-08T00:08:40;100073.75;;;10.18;80.47
59391;BME280;53405;57.012;40.984;2023-09-08T00:11:08;100062.41;;;10.17;80.61
59391;BME280;53405;57.012;40.984;2023-09-08T00:13:36;100049.00;;;10.04;79.73
59391;BME280;53405;57.012;40.984;2023-09-08T00:16:03;100047.72;;;9.91;81.00
59391;BME280;53405;57.012;40.984;2023-09-08T00:18:31;100062.59;;;10.07;81.15
59391;BME280;53405;57.012;40.984;2023-09-08T00:21:00;100064.78;;;10.04;81.20
59391;BME280;53405;57.012;40.984;2023-09-08T00:23:27;100067.69;;;10.09;80.26
59391;BME280;53405;57.012;40.984;2023-09-08T00:25:55;100035.38;;;10.00;80.72
59391;BME280;53405;57.012;40.984;2023-09-08T00:28:23;100065.41;;;10.06;81.25
59391;BME280;53405;57.012;40.984;2023-09-08T00:30:51;100051.41;;;10.13;80.84
59391;BME280;53405;57.012;40.984;2023-09-08T00:33:19;100062.53;;;10.24;80.33
59391;BME280;53405;57.012;40.984;2023-09-08T00:35:50;100066.31;;;10.21;79.31
59391;BME280;53405;57.012;40.984;2023-09-08T00:38:18;100073.28;;;10.14;80.65
59391;BME280;53405;57.012;40.984;2023-09-08T00:40:47;100046.88;;;9.99;80.99
59391;BME280;53405;57.012;40.984;2023-09-08T00:43:16;100063.81;;;10.36;80.11
59391;BME280;53405;57.012;40.984;2023-09-08T00:45:45;100051.84;;;10.25;79.93
59391;BME280;53405;57.012;40.984;2023-09-08T00:48:13;100053.94;;;10.30;79.83
59391;BME280;53405;57.012;40.984;2023-09-08T00:50:41;100051.66;;;10.27;79.58
59391;BME280;53405;57.012;40.984;2023-09-08T00:53:10;100056.13;;;10.18;80.32
59391;BME280;53405;57.012;40.984;2023-09-08T00:55:39;100048.13;;;10.11;80.49
59391;BME280;53405;57.012;40.984;2023-09-08T00:58:08;100046.81;;;10.07;79.97
59391;BME280;53405;57.012;40.984;2023-09-08T01:00:35;100045.88;;;10.00;81.49
59391;BME280;53405;57.012;40.984;2023-09-08T01:03:03;100030.34;;;10.13;80.60
59391;BME280;53405;57.012;40.984;2023-09-08T01:05:32;100016.94;;;10.00;81.47
59391;BME280;53405;57.012;40.984;2023-09-08T01:08:01;99994.47;;;9.89;80.83
59391;BME280;53405;57.012;40.984;2023-09-08T01:10:29;100030.59;;;10.27;80.48
59391;BME280;53405;57.012;40.984;2023-09-08T01:12:57;100016.19;;;10.15;81.19
59391;BME280;53405;57.012;40.984;2023-09-08T01:15:25;100026.91;;;10.13;81.32
59391;BME280;53405;57.012;40.984;2023-09-08T01:17:53;100030.50;;;10.12;80.56
59391;BME280;53405;57.012;40.984;2023-09-08T01:20:33;100020.38;;;10.01;81.19
59391;BME280;53405;57.012;40.984;2023-09-08T01:23:25;100004.19;;;10.12;79.92
59391;BME280;53405;57.012;40.984;2023-09-08T01:26:08;100005.97;;;9.97;81.35
59391;BME280;53405;57.012;40.984;2023-09-08T01:28:37;100013.91;;;10.11;80.56
59391;BME280;53405;57.012;40.984;2023-09-08T01:31:07;100002.50;;;9.96;81.77
59391;BME280;53405;57.012;40.984;2023-09-08T01:33:36;99999.84;;;10.04;81.14
59391;BME280;53405;57.012;40.984;2023-09-08T01:36:04;99993.91;;;10.02;81.14
59391;BME280;53405;57.012;40.984;2023-09-08T01:38:32;99984.16;;;10.11;81.50
59391;BME280;53405;57.012;40.984;2023-09-08T01:41:00;99982.69;;;10.08;80.43
59391;BME280;53405;57.012;40.984;2023-09-08T01:43:29;99982.75;;;10.00;80.87
59391;BME280;53405;57.012;40.984;2023-09-08T01:45:56;99953.03;;;9.91;81.12
59391;BME280;53405;57.012;40.984;2023-09-08T01:48:24;99985.78;;;10.12;80.24
59391;BME280;53405;57.012;40.984;2023-09-08T01:50:52;99979.53;;;10.13;80.44
59391;BME280;53405;57.012;40.984;2023-09-08T01:53:19;99971.66;;;10.13;80.79
59391;BME280;53405;57.012;40.984;2023-09-08T01:55:48;99962.16;;;9.81;81.53
59391;BME280;53405;57.012;40.984;2023-09-08T01:58:16;99976.34;;;10.03;81.49
59391;BME280;53405;57.012;40.984;2023-09-08T02:00:49;99972.56;;;9.97;80.88
59391;BME280;53405;57.012;40.984;2023-09-08T02:03:17;99944.13;;;9.69;81.60
59391;BME280;53405;57.012;40.984;2023-09-08T02:05:45;99965.25;;;9.84;82.09
59391;BME280;53405;57.012;40.984;2023-09-08T02:08:12;99963.53;;;10.00;81.36
59391;BME280;53405;57.012;40.984;2023-09-08T02:10:40;99954.00;;;9.99;80.90
59391;BME280;53405;57.012;40.984;2023-09-08T02:13:08;99941.19;;;9.95;81.11
59391;BME280;53405;57.012;40.984;2023-09-08T02:15:36;99939.94;;;9.83;81.62
59391;BME280;53405;57.012;40.984;2023-09-08T02:18:06;99912.91;;;9.74;81.87
59391;BME280;53405;57.012;40.984;2023-09-08T02:20:53;99919.53;;;9.85;80.43
59391;BME280;53405;57.012;40.984;2023-09-08T02:23:21;99935.81;;;9.89;81.18
59391;BME280;53405;57.012;40.984;2023-09-08T02:25:49;99929.34;;;9.91;80.99
59391;BME280;53405;57.012;40.984;2023-09-08T02:28:16;99930.06;;;9.85;81.39
59391;BME280;53405;57.012;40.984;2023-09-08T02:30:44;99923.88;;;9.78;81.59
59391;BME280;53405;57.012;40.984;2023-09-08T02:33:12;99920.78;;;9.74;82.55
59391;BME280;53405;57.012;40.984;2023-09-08T02:35:40;99922.66;;;9.89;81.74
59391;BME280;53405;57.012;40.984;2023-09-08T02:38:09;99926.56;;;9.93;82.11
59391;BME280;53405;57.012;40.984;2023-09-08T02:40:38;99918.66;;;9.93;81.96
59391;BME280;53405;57.012;40.984;2023-09-08T02:43:05;99918.03;;;9.91;81.97
59391;BME280;53405;57.012;40.984;2023-09-08T02:45:34;99916.34;;;9.98;81.89
59391;BME280;53405;57.012;40.984;2023-09-08T02:48:03;99915.75;;;10.11;81.15
59391;BME280;53405;57.012;40.984;2023-09-08T02:50:31;99911.53;;;10.02;81.11
59391;BME280;53405;57.012;40.984;2023-09-08T02:52:58;99907.94;;;10.03;81.74
59391;BME280;53405;57.012;40.984;2023-09-08T02:55:26;99911.72;;;10.23;81.06
59391;BME280;53405;57.012;40.984;2023-09-08T02:57:54;99891.81;;;10.21;80.80
59391;BME280;53405;57.012;40.984;2023-09-08T03:00:22;99894.88;;;10.09;81.47
59391;BME280;53405;57.012;40.984;2023-09-08T03:02:50;99895.41;;;10.05;82.03
59391;BME280;53405;57.012;40.984;2023-09-08T03:05:18;99901.66;;;10.04;82.19
59391;BME280;53405;57.012;40.984;2023-09-08T03:07:48;99894.47;;;9.98;82.38
59391;BME280;53405;57.012;40.984;2023-09-08T03:10:17;99901.47;;;10.05;82.94
59391;BME280;53405;57.012;40.984;2023-09-08T03:12:45;99887.53;;;10.20;81.78
59391;BME280;53405;57.012;40.984;2023-09-08T03:15:13;99889.81;;;10.23;82.12
59391;BME280;53405;57.012;40.984;2023-09-08T03:17:40;99874.88;;;10.23;82.49
59391;BME280;53405;57.012;40.984;2023-09-08T03:20:10;99894.84;;;10.33;81.92
59391;BME280;53405;57.012;40.984;2023-09-08T03:22:38;99883.97;;;10.36;82.01
59391;BME280;53405;57.012;40.984;2023-09-08T03:25:06;99873.81;;;10.33;82.02
59391;BME280;53405;57.012;40.984;2023-09-08T03:27:33;99863.59;;;10.29;82.40
59391;BME280;53405;57.012;40.984;2023-09-08T03:30:01;99864.75;;;10.35;81.42
59391;BME280;53405;57.012;40.984;2023-09-08T03:32:31;99832.44;;;10.03;82.53
59391;BME280;53405;57.012;40.984;2023-09-08T03:35:00;99848.25;;;10.18;82.78
59391;BME280;53405;57.012;40.984;2023-09-08T03:37:30;99829.56;;;10.13;82.58
59391;BME280;53405;57.012;40.984;2023-09-08T03:39:58;99857.78;;;10.42;82.21
59391;BME280;53405;57.012;40.984;2023-09-08T03:42:26;99859.88;;;10.47;82.78
59391;BME280;53405;57.012;40.984;2023-09-08T03:44:53;99865.56;;;10.65;81.90
59391;BME280;53405;57.012;40.984;2023-09-08T03:47:21;99864.94;;;10.48;82.64
59391;BME280;53405;57.012;40.984;2023-09-08T03:49:49;99873.84;;;10.47;83.23
59391;BME280;53405;57.012;40.984;2023-09-08T03:52:17;99836.19;;;10.24;83.96
59391;BME280;53405;57.012;40.984;2023-09-08T03:54:45;99867.31;;;10.20;85.19
59391;BME280;53405;57.012;40.984;2023-09-08T03:57:13;99863.59;;;10.29;85.73
59391;BME280;53405;57.012;40.984;2023-09-08T03:59:41;99857.84;;;10.34;86.50
59391;BME280;53405;57.012;40.984;2023-09-08T04:02:09;99839.44;;;10.11;85.75
59391;BME280;53405;57.012;40.984;2023-09-08T04:04:37;99859.44;;;10.20;87.28
59391;BME280;53405;57.012;40.984;2023-09-08T04:07:05;99862.97;;;10.27;86.35
59391;BME280;53405;57.012;40.984;2023-09-08T04:09:32;99857.06;;;10.25;86.93
59391;BME280;53405;57.012;40.984;2023-09-08T04:12:01;99846.28;;;10.20;86.91
59391;BME280;53405;57.012;40.984;2023-09-08T04:14:30;99859.09;;;10.23;87.61
59391;BME280;53405;57.012;40.984;2023-09-08T04:17:00;99853.28;;;10.28;87.76
59391;BME280;53405;57.012;40.984;2023-09-08T04:19:28;99838.75;;;10.32;87.62
59391;BME280;53405;57.012;40.984;2023-09-08T04:21:56;99832.47;;;10.18;87.98
59391;BME280;53405;57.012;40.984;2023-09-08T04:24:23;99830.09;;;10.08;89.67
59391;BME280;53405;57.012;40.984;2023-09-08T04:26:51;99835.34;;;10.08;90.44
59391;BME280;53405;57.012;40.984;2023-09-08T04:29:24;99832.53;;;10.10;88.92
59391;BME280;53405;57.012;40.984;2023-09-08T04:31:52;99829.91;;;10.10;89.05
59391;BME280;53405;57.012;40.984;2023-09-08T04:34:20;99839.63;;;10.09;89.50
59391;BME280;53405;57.012;40.984;2023-09-08T04:36:47;99833.13;;;10.20;89.85
59391;BME280;53405;57.012;40.984;2023-09-08T04:39:15;99827.78;;;10.28;88.63
59391;BME280;53405;57.012;40.984;2023-09-08T04:41:43;99815.69;;;10.19;88.47
59391;BME280;53405;57.012;40.984;2023-09-08T04:44:11;99820.59;;;10.22;88.34
59391;BME280;53405;57.012;40.984;2023-09-08T04:46:39;99823.47;;;10.12;89.73
59391;BME280;53405;57.012;40.984;2023-09-08T04:49:06;99823.56;;;10.19;90.41
59391;BME280;53405;57.012;40.984;2023-09-08T04:51:34;99819.38;;;10.33;89.63
59391;BME280;53405;57.012;40.984;2023-09-08T04:54:03;99824.34;;;10.28;90.65
59391;BME280;53405;57.012;40.984;2023-09-08T04:56:31;99827.09;;;10.35;88.97
59391;BME280;53405;57.012;40.984;2023-09-08T04:58:59;99819.47;;;10.17;88.74
59391;BME280;53405;57.012;40.984;2023-09-08T05:01:28;99807.78;;;10.04;90.18
59391;BME280;53405;57.012;40.984;2023-09-08T05:03:59;99812.13;;;10.12;89.69
59391;BME280;53405;57.012;40.984;2023-09-08T05:06:27;99812.13;;;10.12;89.03
59391;BME280;53405;57.012;40.984;2023-09-08T05:08:54;99817.31;;;10.20;91.23
59391;BME280;53405;57.012;40.984;2023-09-08T05:11:23;99814.25;;;10.31;89.02
59391;BME280;53405;57.012;40.984;2023-09-08T05:13:51;99801.09;;;10.31;89.59
59391;BME280;53405;57.012;40.984;2023-09-08T05:16:20;99813.47;;;10.46;88.27
59391;BME280;53405;57.012;40.984;2023-09-08T05:18:53;99814.75;;;10.50;87.50
59391;BME280;53405;57.012;40.984;2023-09-08T05:21:21;99811.75;;;10.53;87.62
59391;BME280;53405;57.012;40.984;2023-09-08T05:23:49;99799.66;;;10.59;87.09
59391;BME280;53405;57.012;40.984;2023-09-08T05:26:17;99802.47;;;10.57;86.83
59391;BME280;53405;57.012;40.984;2023-09-08T05:28:44;99805.75;;;10.74;85.45
59391;BME280;53405;57.012;40.984;2023-09-08T05:31:12;99804.75;;;10.60;84.57
59391;BME280;53405;57.012;40.984;2023-09-08T05:33:40;99746.91;;;10.22;86.77
59391;BME280;53405;57.012;40.984;2023-09-08T05:36:08;99797.81;;;10.29;87.70
59391;BME280;53405;57.012;40.984;2023-09-08T05:38:37;99795.84;;;10.46;86.63
59391;BME280;53405;57.012;40.984;2023-09-08T05:41:05;99790.22;;;10.49;84.21
59391;BME280;53405;57.012;40.984;2023-09-08T05:43:32;99790.94;;;10.43;84.17
59391;BME280;53405;57.012;40.984;2023-09-08T05:46:00;99794.84;;;10.47;84.73
59391;BME280;53405;57.012;40.984;2023-09-08T05:48:29;99775.69;;;10.39;81.71
59391;BME280;53405;57.012;40.984;2023-09-08T05:50:58;99787.88;;;10.40;84.13
59391;BME280;53405;57.012;40.984;2023-09-08T05:53:27;99779.28;;;10.23;83.09
59391;BME280;53405;57.012;40.984;2023-09-08T05:55:55;99795.31;;;10.36;82.88
59391;BME280;53405;57.012;40.984;2023-09-08T05:58:23;99791.91;;;10.27;82.41
59391;BME280;53405;57.012;40.984;2023-09-08T06:00:52;99766.22;;;10.15;81.43
59391;BME280;53405;57.012;40.984;2023-09-08T06:03:20;99780.75;;;10.25;81.43
59391;BME280;53405;57.012;40.984;2023-09-08T06:05:48;99759.13;;;10.00;80.99
59391;BME280;53405;57.012;40.984;2023-09-08T06:08:15;99752.78;;;9.94;83.82
59391;BME280;53405;57.012;40.984;2023-09-08T06:10:44;99777.38;;;10.17;82.47
59391;BME280;53405;57.012;40.984;2023-09-08T06:13:12;99743.72;;;9.97;82.56
59391;BME280;53405;57.012;40.984;2023-09-08T06:15:41;99763.78;;;10.13;80.33
59391;BME280;53405;57.012;40.984;2023-09-08T06:18:11;99763.94;;;10.11;81.36
59391;BME280;53405;57.012;40.984;2023-09-08T06:20:46;99760.06;;;10.22;81.53
59391;BME280;53405;57.012;40.984;2023-09-08T06:23:15;99740.84;;;10.22;79.94
59391;BME280;53405;57.012;40.984;2023-09-08T06:25:43;99755.38;;;10.47;79.68
59391;BME280;53405;57.012;40.984;2023-09-08T06:28:10;99748.03;;;10.43;80.70
59391;BME280;53405;57.012;40.984;2023-09-08T06:30:38;99753.63;;;10.25;79.24
59391;BME280;53405;57.012;40.984;2023-09-08T06:33:09;99751.59;;;10.12;79.56
59391;BME280;53405;57.012;40.984;2023-09-08T06:35:37;99751.97;;;10.09;81.73
59391;BME280;53405;57.012;40.984;2023-09-08T06:38:05;99746.47;;;10.19;81.06
59391;BME280;53405;57.012;40.984;2023-09-08T06:40:32;99747.81;;;10.15;80.12
59391;BME280;53405;57.012;40.984;2023-09-08T06:43:00;99749.28;;;10.17;80.77
59391;BME280;53405;57.012;40.984;2023-09-08T06:45:42;99744.72;;;10.26;79.87
59391;BME280;53405;57.012;40.984;2023-09-08T06:48:10;99738.00;;;9.93;79.70
59391;BME280;53405;57.012;40.984;2023-09-08T06:50:37;99753.88;;;10.15;79.36
59391;BME280;53405;57.012;40.984;2023-09-08T06:53:05;99743.38;;;10.30;79.27
59391;BME280;53405;57.012;40.984;2023-09-08T06:55:32;99716.78;;;10.25;78.10
59391;BME280;53405;57.012;40.984;2023-09-08T06:58:00;99760.09;;;10.52;76.91
59391;BME280;53405;57.012;40.984;2023-09-08T07:00:28;99758.91;;;10.40;76.12
59391;BME280;53405;57.012;40.984;2023-09-08T07:02:59;99755.00;;;10.36;77.53
59391;BME280;53405;57.012;40.984;2023-09-08T07:05:27;99756.66;;;10.37;77.60
59391;BME280;53405;57.012;40.984;2023-09-08T07:07:55;99752.19;;;10.52;77.25
59391;BME280;53405;57.012;40.984;2023-09-08T07:10:22;99733.03;;;10.43;75.93
59391;BME280;53405;57.012;40.984;2023-09-08T07:12:51;99761.16;;;10.58;77.17
59391;BME280;53405;57.012;40.984;2023-09-08T07:15:19;99753.91;;;10.60;77.20
59391;BME280;53405;57.012;40.984;2023-09-08T07:17:46;99759.88;;;10.69;76.40
59391;BME280;53405;57.012;40.984;2023-09-08T07:20:14;99770.88;;;10.72;77.41
59391;BME280;53405;57.012;40.984;2023-09-08T07:22:42;99764.25;;;10.31;79.38
59391;BME280;53405;57.012;40.984;2023-09-08T07:25:10;99778.94;;;10.11;81.92
59391;BME280;53405;57.012;40.984;2023-09-08T07:27:38;99781.69;;;9.80;84.23
59391;BME280;53405;57.012;40.984;2023-09-08T07:30:07;99776.78;;;9.76;85.28
59391;BME280;53405;57.012;40.984;2023-09-08T07:32:36;99779.06;;;9.80;84.50
59391;BME280;53405;57.012;40.984;2023-09-08T07:35:04;99769.16;;;9.82;87.20
59391;BME280;53405;57.012;40.984;2023-09-08T07:37:32;99781.00;;;10.01;85.58
59391;BME280;53405;57.012;40.984;2023-09-08T07:39:59;99785.34;;;9.93;87.61
59391;BME280;53405;57.012;40.984;2023-09-08T07:42:30;99780.19;;;10.00;86.72
59391;BME280;53405;57.012;40.984;2023-09-08T07:44:57;99776.00;;;10.06;83.83
59391;BME280;53405;57.012;40.984;2023-09-08T07:47:26;99744.59;;;9.89;86.35
59391;BME280;53405;57.012;40.984;2023-09-08T07:52:47;99782.81;;;10.00;85.89
59391;BME280;53405;57.012;40.984;2023-09-08T07:55:15;99772.75;;;10.04;85.71
59391;BME280;53405;57.012;40.984;2023-09-08T07:57:44;99781.56;;;10.11;85.59
59391;BME280;53405;57.012;40.984;2023-09-08T08:00:13;99777.38;;;10.17;84.96
59391;BME280;53405;57.012;40.984;2023-09-08T08:02:44;99780.50;;;10.20;83.67
59391;BME280;53405;57.012;40.984;2023-09-08T08:05:12;99784.09;;;10.19;86.79
59391;BME280;53405;57.012;40.984;2023-09-08T08:07:41;99780.50;;;10.35;83.73
59391;BME280;53405;57.012;40.984;2023-09-08T08:10:10;99770.72;;;10.44;83.21
59391;BME280;53405;57.012;40.984;2023-09-08T08:12:39;99789.69;;;10.69;83.47
59391;BME280;53405;57.012;40.984;2023-09-08T08:15:08;99788.53;;;10.93;80.84
59391;BME280;53405;57.012;40.984;2023-09-08T08:17:40;99778.81;;;10.94;81.41
59391;BME280;53405;57.012;40.984;2023-09-08T08:20:09;99784.81;;;11.02;79.70
59391;BME280;53405;57.012;40.984;2023-09-08T08:22:39;99789.34;;;10.94;80.59
59391;BME280;53405;57.012;40.984;2023-09-08T08:25:07;99792.75;;;10.73;79.80
59391;BME280;53405;57.012;40.984;2023-09-08T08:27:36;99787.59;;;10.64;80.56
59391;BME280;53405;57.012;40.984;2023-09-08T08:30:04;99790.44;;;10.84;80.40
59391;BME280;53405;57.012;40.984;2023-09-08T08:32:44;99791.63;;;10.97;80.08
59391;BME280;53405;57.012;40.984;2023-09-08T08:35:12;99795.81;;;10.91;80.47
59391;BME280;53405;57.012;40.984;2023-09-08T08:37:40;99801.97;;;10.98;79.60
59391;BME280;53405;57.012;40.984;2023-09-08T08:40:09;99798.09;;;10.79;77.63
59391;BME280;53405;57.012;40.984;2023-09-08T08:42:41;99779.69;;;10.64;78.43
59391;BME280;53405;57.012;40.984;2023-09-08T08:45:10;99789.78;;;10.46;78.96
59391;BME280;53405;57.012;40.984;2023-09-08T08:47:39;99796.38;;;10.42;80.22
59391;BME280;53405;57.012;40.984;2023-09-08T08:50:08;99789.41;;;10.34;81.25
59391;BME280;53405;57.012;40.984;2023-09-08T08:52:38;99802.38;;;10.36;81.71
59391;BME280;53405;57.012;40.984;2023-09-08T08:55:07;99812.44;;;10.32;83.36
59391;BME280;53405;57.012;40.984;2023-09-08T08:57:39;99810.75;;;10.39;82.93
59391;BME280;53405;57.012;40.984;2023-09-08T09:00:09;99806.56;;;10.45;82.95
59391;BME280;53405;57.012;40.984;2023-09-08T09:02:42;99766.13;;;10.23;81.83
59391;BME280;53405;57.012;40.984;2023-09-08T09:05:12;99808.56;;;10.58;81.58
59391;BME280;53405;57.012;40.984;2023-09-08T09:07:43;99817.09;;;10.60;80.67
59391;BME280;53405;57.012;40.984;2023-09-08T09:10:11;99814.38;;;10.53;80.60
59391;BME280;53405;57.012;40.984;2023-09-08T09:12:39;99809.66;;;10.63;80.01
59391;BME280;53405;57.012;40.984;2023-09-08T09:15:08;99788.84;;;10.39;79.46
59391;BME280;53405;57.012;40.984;2023-09-08T09:17:36;99826.19;;;10.57;79.75
59391;BME280;53405;57.012;40.984;2023-09-08T09:20:18;99825.72;;;10.69;80.31
59391;BME280;53405;57.012;40.984;2023-09-08T09:22:48;99823.59;;;10.94;80.37
59391;BME280;53405;57.012;40.984;2023-09-08T09:25:24;99837.19;;;11.12;79.03
59391;BME280;53405;57.012;40.984;2023-09-08T09:28:02;99832.84;;;11.05;76.48
59391;BME280;53405;57.012;40.984;2023-09-08T09:30:49;99832.41;;;10.86;76.75
59391;BME280;53405;57.012;40.984;2023-09-08T09:33:20;99833.66;;;11.05;78.76
59391;BME280;53405;57.012;40.984;2023-09-08T09:38:20;99837.13;;;11.06;79.85
59391;BME280;53405;57.012;40.984;2023-09-08T09:40:48;99837.31;;;11.04;79.12
59391;BME280;53405;57.012;40.984;2023-09-08T09:43:21;99843.06;;;11.29;77.27
59391;BME280;53405;57.012;40.984;2023-09-08T09:45:51;99842.06;;;11.30;78.34
59391;BME280;53405;57.012;40.984;2023-09-08T09:48:20;99832.97;;;10.96;78.92
59391;BME280;53405;57.012;40.984;2023-09-08T09:50:48;99842.78;;;10.88;79.18
59391;BME280;53405;57.012;40.984;2023-09-08T09:53:16;99839.59;;;10.62;79.82
59391;BME280;53405;57.012;40.984;2023-09-08T09:55:45;99851.88;;;10.55;80.51
59391;BME280;53405;57.012;40.984;2023-09-08T09:58:14;99857.50;;;10.67;81.06
59391;BME280;53405;57.012;40.984;2023-09-08T10:00:43;99863.69;;;10.74;82.18
59391;BME280;53405;57.012;40.984;2023-09-08T10:03:15;99865.50;;;10.74;81.43
59391;BME280;53405;57.012;40.984;2023-09-08T10:05:43;99830.16;;;10.68;82.02
59391;BME280;53405;57.012;40.984;2023-09-08T10:08:11;99866.47;;;10.88;81.96
59391;BME280;53405;57.012;40.984;2023-09-08T10:10:39;99862.94;;;10.95;82.55
59391;BME280;53405;57.012;40.984;2023-09-08T10:13:10;99857.09;;;11.15;81.92
59391;BME280;53405;57.012;40.984;2023-09-08T10:15:40;99863.94;;;11.46;79.31
59391;BME280;53405;57.012;40.984;2023-09-08T10:18:09;99866.06;;;11.57;79.31
59391;BME280;53405;57.012;40.984;2023-09-08T10:20:40;99843.13;;;11.36;76.92
59391;BME280;53405;57.012;40.984;2023-09-08T10:23:31;99872.72;;;11.74;78.86
59391;BME280;53405;57.012;40.984;2023-09-08T10:26:03;99866.91;;;12.22;77.43
59391;BME280;53405;57.012;40.984;2023-09-08T10:28:32;99878.47;;;12.50;74.66
59391;BME280;53405;57.012;40.984;2023-09-08T10:31:01;99866.31;;;12.27;74.55
59391;BME280;53405;57.012;40.984;2023-09-08T10:33:30;99872.53;;;12.41;75.85
59391;BME280;53405;57.012;40.984;2023-09-08T10:35:59;99871.06;;;12.67;70.51
59391;BME280;53405;57.012;40.984;2023-09-08T10:38:34;99849.38;;;12.15;72.00
59391;BME280;53405;57.012;40.984;2023-09-08T10:41:28;99874.66;;;12.02;74.53
59391;BME280;53405;57.012;40.984;2023-09-08T10:44:00;99875.06;;;12.06;74.89
59391;BME280;53405;57.012;40.984;2023-09-08T10:46:31;99875.16;;;12.76;71.77
59391;BME280;53405;57.012;40.984;2023-09-08T10:49:04;99875.09;;;12.69;70.62
59391;BME280;53405;57.012;40.984;2023-09-08T10:51:34;99880.66;;;12.46;71.80
59391;BME280;53405;57.012;40.984;2023-09-08T10:54:02;99876.88;;;12.55;72.47
59391;BME280;53405;57.012;40.984;2023-09-08T10:56:47;99888.47;;;12.61;74.49
59391;BME280;53405;57.012;40.984;2023-09-08T10:59:19;99893.34;;;12.57;75.47
59391;BME280;53405;57.012;40.984;2023-09-08T11:01:47;99891.75;;;12.06;78.64
59391;BME280;53405;57.012;40.984;2023-09-08T11:04:15;99890.69;;;11.64;80.29
59391;BME280;53405;57.012;40.984;2023-09-08T11:06:46;99896.69;;;11.36;83.20
59391;BME280;53405;57.012;40.984;2023-09-08T11:09:14;99899.06;;;11.31;84.58
59391;BME280;53405;57.012;40.984;2023-09-08T11:11:43;99897.97;;;11.26;85.33
59391;BME280;53405;57.012;40.984;2023-09-08T11:14:11;99898.91;;;11.18;86.20
59391;BME280;53405;57.012;40.984;2023-09-08T11:16:39;99896.72;;;11.21;86.30
59391;BME280;53405;57.012;40.984;2023-09-08T11:19:07;99893.84;;;11.38;84.95
59391;BME280;53405;57.012;40.984;2023-09-08T11:21:36;99899.28;;;11.51;84.23
59391;BME280;53405;57.012;40.984;2023-09-08T11:24:05;99901.56;;;11.54;86.38
59391;BME280;53405;57.012;40.984;2023-09-08T11:26:34;99896.09;;;11.56;82.99
59391;BME280;53405;57.012;40.984;2023-09-08T11:29:02;99895.56;;;12.54;83.09
59391;BME280;53405;57.012;40.984;2023-09-08T11:31:31;99905.44;;;13.70;78.88
59391;BME280;53405;57.012;40.984;2023-09-08T11:33:59;99900.59;;;14.74;71.87
59391;BME280;53405;57.012;40.984;2023-09-08T11:36:29;99900.50;;;15.14;68.12
59391;BME280;53405;57.012;40.984;2023-09-08T11:38:56;99896.31;;;14.59;71.69
59391;BME280;53405;57.012;40.984;2023-09-08T11:41:24;99907.34;;;14.63;73.17
59391;BME280;53405;57.012;40.984;2023-09-08T11:43:52;99910.19;;;14.68;68.38
59391;BME280;53405;57.012;40.984;2023-09-08T11:46:21;99911.41;;;14.12;72.03
59391;BME280;53405;57.012;40.984;2023-09-08T11:48:49;99906.88;;;13.59;75.50
59391;BME280;53405;57.012;40.984;2023-09-08T11:51:16;99911.13;;;13.60;75.40
59391;BME280;53405;57.012;40.984;2023-09-08T11:53:45;99909.91;;;13.14;76.61
59391;BME280;53405;57.012;40.984;2023-09-08T11:56:13;99908.78;;;12.89;76.19
59391;BME280;53405;57.012;40.984;2023-09-08T11:58:41;99914.31;;;12.65;78.80
59391;BME280;53405;57.012;40.984;2023-09-08T12:01:10;99914.28;;;12.31;80.78
59391;BME280;53405;57.012;40.984;2023-09-08T12:03:56;99926.53;;;12.17;79.96
59391;BME280;53405;57.012;40.984;2023-09-08T12:06:26;99921.63;;;12.14;81.51
59391;BME280;53405;57.012;40.984;2023-09-08T12:09:01;99926.28;;;12.11;81.96
59391;BME280;53405;57.012;40.984;2023-09-08T12:11:34;99919.19;;;11.90;85.30
59391;BME280;53405;57.012;40.984;2023-09-08T12:14:13;99928.03;;;11.83;82.46
59391;BME280;53405;57.012;40.984;2023-09-08T12:16:42;99906.78;;;11.69;83.06
59391;BME280;53405;57.012;40.984;2023-09-08T12:19:31;99932.66;;;11.81;81.67
59391;BME280;53405;57.012;40.984;2023-09-08T12:22:01;99941.31;;;11.74;81.83
59391;BME280;53405;57.012;40.984;2023-09-08T12:27:20;99939.09;;;11.56;81.25
59391;BME280;53405;57.012;40.984;2023-09-08T12:30:00;99909.16;;;11.28;81.57
59391;BME280;53405;57.012;40.984;2023-09-08T12:32:33;99936.69;;;11.40;82.86
59391;BME280;53405;57.012;40.984;2023-09-08T12:35:03;99944.69;;;11.32;83.18
59391;BME280;53405;57.012;40.984;2023-09-08T12:37:33;99939.88;;;11.20;84.44
59391;BME280;53405;57.012;40.984;2023-09-08T12:40:01;99947.44;;;11.38;85.34
59391;BME280;53405;57.012;40.984;2023-09-08T12:42:31;99943.22;;;11.44;84.10
59391;BME280;53405;57.012;40.984;2023-09-08T12:44:58;99940.22;;;11.47;82.87
59391;BME280;53405;57.012;40.984;2023-09-08T12:47:29;99944.94;;;11.52;82.99
59391;BME280;53405;57.012;40.984;2023-09-08T12:49:57;99953.84;;;11.51;83.24
59391;BME280;53405;57.012;40.984;2023-09-08T12:52:25;99950.38;;;11.50;83.15
59391;BME280;53405;57.012;40.984;2023-09-08T12:54:52;99951.00;;;11.67;82.73
59391;BME280;53405;57.012;40.984;2023-09-08T12:57:20;99950.06;;;11.75;82.12
59391;BME280;53405;57.012;40.984;2023-09-08T12:59:49;99960.22;;;11.93;82.33
59391;BME280;53405;57.012;40.984;2023-09-08T13:02:19;99959.09;;;12.02;78.58
59391;BME280;53405;57.012;40.984;2023-09-08T13:04:47;99949.88;;;12.13;81.71
59391;BME280;53405;57.012;40.984;2023-09-08T13:07:16;99964.56;;;12.22;79.01
59391;BME280;53405;57.012;40.984;2023-09-08T13:09:45;99964.56;;;12.22;81.57